< < Back
Terminal Aerodrome Forecast


Current Version              Previous Versions:   1  2  3  4  5  6  7  8  9  

Terminal Aerodrome Forecast

903
FTUS42 KFFC 251729
TAFAHN
TAF
KAHN 251729Z 2518/2618 22007KT P6SM SCT220
     FM252100 19006KT P6SM SCT120 OVC200
     FM260000 19005KT P6SM SCT045 OVC070
     FM260300 18005KT P6SM OVC040
     FM260600 21004KT P6SM -RA OVC025
     FM260900 24004KT P6SM -RA SCT007 OVC015
     FM261500 31012G20KT P6SM BKN025=



Latest METAR

147
SAUS70 KWBC 252200 RRA
MTRAHN
METAR KAHN 252151Z 20006KT 10SM CLR 14/M02 A2976 RMK AO2 SLP081
T01441022


USA.gov is the U.S. government's official web portal to all federal, state and local government web resources and services.